Fisktrans — LIAB — position and weather

sailwx.info

Track history (hours):
 
Tides and Currents Weather Stations Pressure Air Temp Water Temp Dewpoint Dewpoint Depression Visibility Wind Speed Wind Dir Waves Ship Positions

Fisktrans

Last reported at 2016-Dec-03 05:20 UTC. Time now 2016-Dec-04 20:23 UTC.
Position N 69°20' E 018°02'.

Length 74 m; draft 6.5 m.

Type: Cargo ship. MMSI: 258034000.

Date/timePositionNaut miles runAvg speedWind from/ knotsBaromVisibWave heightAir tempDewpointWater temp
2016-Dec-03 05:20N 69°20' E 018°02'7 9.2
2016-Dec-03 04:33N 69°13' E 017°59'8 8.2
2016-Dec-03 03:33N 69°08' E 017°41'12 9.6
2016-Dec-03 02:20N 68°60' E 017°16'1810.3
2016-Dec-03 00:33N 68°45' E 016°46'4120.5
2016-Dec-02 22:33N 68°13' E 015°35'2914.0
2016-Dec-02 20:30N 67°52' E 014°43'7 5.9
2016-Dec-02 19:19N 67°47' E 014°32'5 6.5
2016-Dec-02 18:32N 67°42' E 014°31'2 0.9
2016-Dec-02 16:18N 67°44' E 014°31'1710.0
2016-Dec-02 14:34N 67°26' E 014°27'10 9.6
2016-Dec-02 13:33N 67°17' E 014°22'1 0.5
2016-Dec-02 12:34N 67°17' E 014°23'0 0.0
2016-Dec-02 11:33N 67°17' E 014°23'0 0.0
2016-Dec-02 10:33N 67°17' E 014°23'0 0.0
2016-Dec-02 09:34N 67°17' E 014°23'0 0.0
2016-Dec-02 08:34N 67°17' E 014°23'0 0.0
2016-Dec-02 07:34N 67°17' E 014°23'0 0.0
2016-Dec-02 06:34N 67°17' E 014°23'0 0.0
2016-Dec-02 05:34N 67°17' E 014°23'0 0.0
2016-Dec-02 04:34N 67°17' E 014°23'0 0.0
2016-Dec-02 03:34N 67°17' E 014°23'0 0.0
2016-Dec-02 02:33N 67°17' E 014°23'0 0.0
2016-Dec-02 01:34N 67°17' E 014°23'0 0.0
2016-Dec-02 00:33N 67°17' E 014°23'0 0.0
2016-Dec-01 23:33N 67°17' E 014°23'0 0.0
2016-Dec-01 22:33N 67°17' E 014°23'0 0.0
2016-Dec-01 21:34N 67°17' E 014°23'0 0.0
2016-Dec-01 20:33N 67°17' E 014°23'0 0.0
2016-Dec-01 19:33N 67°17' E 014°23'0 0.0
2016-Dec-01 18:33N 67°17' E 014°23'0 0.0
2016-Dec-01 17:34N 67°17' E 014°23'0 0.0
2016-Dec-01 16:34N 67°17' E 014°23'0 0.0
2016-Dec-01 15:34N 67°17' E 014°23'0 0.0
2016-Dec-01 14:33N 67°17' E 014°23'0 0.0
2016-Dec-01 13:33N 67°17' E 014°23'0 0.0
2016-Dec-01 12:34N 67°17' E 014°23'0 0.0
2016-Dec-01 11:34N 67°17' E 014°23'0 0.0
2016-Dec-01 10:34N 67°17' E 014°23'0 0.0
2016-Dec-01 09:34N 67°17' E 014°23'0 0.0
2016-Dec-01 08:33N 67°17' E 014°23'0 0.0
2016-Dec-01 07:34N 67°17' E 014°23'0 0.0
2016-Dec-01 06:34N 67°17' E 014°23'0 0.0
2016-Dec-01 05:33N 67°17' E 014°23'0 0.0
2016-Dec-01 04:34N 67°17' E 014°23'0 0.0
2016-Dec-01 03:34N 67°17' E 014°23'0 0.0
2016-Dec-01 02:33N 67°17' E 014°23'0 0.0
2016-Dec-01 01:34N 67°17' E 014°23'0 0.0
2016-Dec-01 00:34N 67°17' E 014°23'0 0.0
2016-Nov-30 23:33N 67°17' E 014°23'0 0.0
2016-Nov-30 22:33N 67°17' E 014°23'0 0.0
2016-Nov-30 21:34N 67°17' E 014°23'0 0.0
2016-Nov-30 20:33N 67°17' E 014°23'0 0.0
2016-Nov-30 19:33N 67°17' E 014°23'0 0.0
2016-Nov-30 18:34N 67°17' E 014°23'0 0.0
2016-Nov-30 17:33N 67°17' E 014°23'0 0.0
2016-Nov-30 16:34N 67°17' E 014°23'0 0.0
2016-Nov-30 15:34N 67°17' E 014°23'0 0.0
2016-Nov-30 14:33N 67°17' E 014°23'0 0.0
2016-Nov-30 13:33N 67°17' E 014°23'0 0.0
2016-Nov-30 12:33N 67°17' E 014°23'0 0.0
2016-Nov-30 11:33N 67°17' E 014°23'0 0.0
2016-Nov-30 10:34N 67°17' E 014°23'0 0.0
2016-Nov-30 09:33N 67°17' E 014°23'0 0.0
2016-Nov-30 08:33N 67°17' E 014°23'0 0.0
2016-Nov-30 07:34N 67°17' E 014°23'0 0.0
2016-Nov-30 06:34N 67°17' E 014°23'0 0.0
2016-Nov-30 05:33N 67°17' E 014°23'0 0.0
2016-Nov-30 04:34N 67°17' E 014°23'0 0.0
2016-Nov-30 03:33N 67°17' E 014°23'0 0.0
2016-Nov-30 02:34N 67°17' E 014°23'0 0.0
2016-Nov-30 01:34N 67°17' E 014°23'0 0.0
2016-Nov-30 00:33N 67°17' E 014°23'0 0.0
2016-Nov-29 23:33N 67°17' E 014°23'0 0.0
2016-Nov-29 22:34N 67°17' E 014°23'0 0.0
2016-Nov-29 21:32N 67°17' E 014°23'0 0.0
2016-Nov-29 20:33N 67°17' E 014°23'0 0.0
2016-Nov-29 19:34N 67°17' E 014°23'0 0.0
2016-Nov-29 18:33N 67°17' E 014°23'0 0.0
2016-Nov-29 17:33N 67°17' E 014°23'0 0.0
2016-Nov-29 16:33N 67°17' E 014°23'0 0.0
2016-Nov-29 15:33N 67°17' E 014°23'0 0.0
2016-Nov-29 14:34N 67°17' E 014°23'0 0.0
2016-Nov-29 13:33N 67°17' E 014°23'0 0.0
2016-Nov-29 12:33N 67°17' E 014°23'0 0.0
2016-Nov-29 11:34N 67°17' E 014°23'0 0.0
2016-Nov-29 10:33N 67°17' E 014°23'0 0.0
2016-Nov-29 09:34N 67°17' E 014°23'0 0.0
2016-Nov-29 08:33N 67°17' E 014°23'0 0.0
2016-Nov-29 07:34N 67°17' E 014°23'0 0.0
2016-Nov-29 06:34N 67°17' E 014°23'0 0.0
2016-Nov-29 05:33N 67°17' E 014°23'0 0.0
2016-Nov-29 04:34N 67°17' E 014°23'0 0.0
2016-Nov-29 03:34N 67°17' E 014°23'0 0.0
2016-Nov-29 02:34N 67°17' E 014°23'0 0.0
2016-Nov-29 01:33N 67°17' E 014°23'0 0.0
2016-Nov-29 00:34N 67°17' E 014°23'0 0.0
2016-Nov-28 23:34N 67°17' E 014°23'2 1.6
2016-Nov-28 22:33N 67°19' E 014°23'148147.1
2016-Nov-28 21:33N 69°30' E 017°29'0 0.0
2016-Nov-28 20:32N 69°30' E 017°29'0 0.0
2016-Nov-28 19:33N 69°30' E 017°29'0 0.0
2016-Nov-28 18:32N 69°30' E 017°29'0 0.0
2016-Nov-28 17:33N 69°30' E 017°29'0 0.0
2016-Nov-28 16:32N 69°30' E 017°29'0 0.0
2016-Nov-28 15:33N 69°30' E 017°29'0 0.0
2016-Nov-28 14:31N 69°30' E 017°29'0 0.0
2016-Nov-28 13:33N 69°30' E 017°29'0 0.0
2016-Nov-28 12:32N 69°30' E 017°29'0 0.0
2016-Nov-28 11:32N 69°30' E 017°29'0 0.0
2016-Nov-28 10:32N 69°30' E 017°29'0 0.0
2016-Nov-28 09:32N 69°30' E 017°29'0 0.0
2016-Nov-28 08:32N 69°30' E 017°29'2424.0
2016-Nov-28 07:34N 69°06' E 017°31'10 9.9
2016-Nov-28 06:34N 69°10' E 017°57'2221.7
2016-Nov-28 05:33N 69°30' E 017°29'0 0.0
2016-Nov-28 04:33N 69°30' E 017°29'0 0.0
2016-Nov-28 03:33N 69°30' E 017°29'0 0.0
2016-Nov-28 02:33N 69°30' E 017°29'0 0.0
2016-Nov-28 01:32N 69°30' E 017°29'0 0.0
2016-Nov-28 00:32N 69°30' E 017°29'0 0.0
2016-Nov-27 23:33N 69°30' E 017°29'1 1.3
2016-Nov-27 22:32N 69°31' E 017°29'12 6.0
2016-Nov-27 20:33N 69°30' E 016°55'6 5.8
2016-Nov-27 19:32N 69°25' E 016°49'7 6.6
2016-Nov-27 18:32N 69°18' E 016°50'6 6.5
2016-Nov-27 17:33N 69°12' E 016°47'7 6.4
2016-Nov-27 16:32N 69°05' E 016°45'15 6.8
2016-Nov-27 14:16N 68°50' E 016°46'5 6.9
2016-Nov-27 13:32N 68°45' E 016°44'7 6.9
2016-Nov-27 12:33N 68°39' E 016°36'39 6.5
2016-Nov-27 06:29N 68°10' E 015°24'5 3.9
2016-Nov-27 05:09N 68°06' E 015°14'4 6.9
2016-Nov-27 04:33N 68°03' E 015°06'7 7.0
2016-Nov-27 03:33N 67°58' E 014°53'7 7.0
2016-Nov-27 02:33N 67°52' E 014°43'7 6.8
2016-Nov-27 01:33N 67°47' E 014°31'7 7.4
2016-Nov-27 00:33N 67°40' E 014°31'7 7.1
2016-Nov-26 23:33N 67°32' E 014°30'7 7.1
2016-Nov-26 22:32N 67°25' E 014°27'7 7.1
2016-Nov-26 21:33N 67°19' E 014°23'1 1.2
2016-Nov-26 20:33N 67°17' E 014°23'0 0.0
2016-Nov-26 19:33N 67°17' E 014°23'0 0.0
2016-Nov-26 18:33N 67°17' E 014°23'0 0.0
2016-Nov-26 17:33N 67°17' E 014°23'0 0.0
2016-Nov-26 16:33N 67°17' E 014°23'0 0.0
2016-Nov-26 15:33N 67°17' E 014°23'0 0.0
2016-Nov-26 14:33N 67°17' E 014°23'0 0.0
2016-Nov-26 13:32N 67°17' E 014°23'0 0.0
2016-Nov-26 12:34N 67°17' E 014°23'0 0.0
2016-Nov-26 11:33N 67°17' E 014°23'0 0.0
2016-Nov-26 10:32N 67°17' E 014°23'0 0.0
2016-Nov-26 09:33N 67°17' E 014°23'0 0.0
2016-Nov-26 08:32N 67°17' E 014°23'0 0.0
2016-Nov-26 07:32N 67°17' E 014°23'0 0.0
2016-Nov-26 06:33N 67°17' E 014°23'0 0.0
2016-Nov-26 05:32N 67°17' E 014°23'0 0.0
2016-Nov-26 04:34N 67°17' E 014°23'0 0.0
2016-Nov-26 03:33N 67°17' E 014°23'0 0.0
2016-Nov-26 02:33N 67°17' E 014°23'0 0.0
2016-Nov-26 01:33N 67°17' E 014°23'0 0.0
2016-Nov-26 00:33N 67°17' E 014°23'0 0.0
2016-Nov-25 23:33N 67°17' E 014°23'0 0.0
2016-Nov-25 22:32N 67°17' E 014°23'0 0.0
2016-Nov-25 21:34N 67°17' E 014°23'0 0.0
2016-Nov-25 20:33N 67°17' E 014°23'0 0.0
2016-Nov-25 19:33N 67°17' E 014°23'1212.2
2016-Nov-25 18:33N 67°29' E 014°29'1010.3
2016-Nov-25 17:33N 67°19' E 014°23'2 2.0
2016-Nov-25 16:33N 67°17' E 014°23'0 0.0
2016-Nov-25 15:33N 67°17' E 014°23'0 0.0
2016-Nov-25 14:33N 67°17' E 014°23'0 0.0
2016-Nov-25 13:33N 67°17' E 014°23'0 0.0
2016-Nov-25 12:33N 67°17' E 014°23'0 0.0
2016-Nov-25 11:33N 67°17' E 014°23'0 0.0
2016-Nov-25 10:33N 67°17' E 014°23'0 0.0
2016-Nov-25 09:33N 67°17' E 014°23'0 0.0
2016-Nov-25 08:33N 67°17' E 014°23'0 0.0
2016-Nov-25 07:33N 67°17' E 014°23'0 0.0
2016-Nov-25 06:33N 67°17' E 014°23'0 0.0
2016-Nov-25 05:33N 67°17' E 014°23'0 0.0
2016-Nov-25 04:33N 67°17' E 014°23'0 0.0
2016-Nov-25 03:33N 67°17' E 014°23'0 0.0
2016-Nov-25 02:33N 67°17' E 014°23'0 0.0
2016-Nov-25 01:33N 67°17' E 014°23'0 0.0
2016-Nov-25 00:33N 67°17' E 014°23'0 0.0
2016-Nov-24 23:33N 67°17' E 014°23'0 0.0
2016-Nov-24 22:33N 67°17' E 014°23'0 0.0
2016-Nov-24 21:33N 67°17' E 014°23'0 0.0
2016-Nov-24 20:33N 67°17' E 014°23'0 0.0
2016-Nov-24 19:33N 67°17' E 014°23'0 0.0
2016-Nov-24 18:33N 67°17' E 014°23'0 0.0
2016-Nov-24 17:33N 67°17' E 014°23'0 0.0
2016-Nov-24 16:33N 67°17' E 014°23'0 0.0
2016-Nov-24 15:33N 67°17' E 014°23'0 0.0
2016-Nov-24 14:33N 67°17' E 014°23'0 0.0
2016-Nov-24 13:33N 67°17' E 014°23'0 0.0
2016-Nov-24 12:33N 67°17' E 014°23'0 0.0
2016-Nov-24 11:33N 67°17' E 014°23'0 0.1
2016-Nov-24 10:33N 67°17' E 014°23'0 0.1
2016-Nov-24 09:33N 67°17' E 014°23'0 0.0
2016-Nov-24 08:33N 67°17' E 014°23'0 0.0
2016-Nov-24 07:33N 67°17' E 014°23'0 0.0
2016-Nov-24 06:33N 67°17' E 014°23'0 0.0
2016-Nov-24 05:33N 67°17' E 014°23'0 0.0
2016-Nov-24 04:33N 67°17' E 014°23'0 0.0
2016-Nov-24 03:33N 67°17' E 014°23'0 0.0
2016-Nov-24 02:33N 67°17' E 014°23'0 0.0
2016-Nov-24 01:33N 67°17' E 014°23'0 0.0
2016-Nov-24 00:33N 67°17' E 014°23'0 0.0
2016-Nov-23 23:33N 67°17' E 014°23'2 2.1
2016-Nov-23 22:33N 67°16' E 014°18'10 9.5
2016-Nov-23 21:33N 67°09' E 014°02'1010.3
2016-Nov-23 20:33N 67°01' E 013°44'9 9.3
2016-Nov-23 19:33N 66°55' E 013°28'28 9.2
2016-Nov-23 16:30N 66°38' E 012°31'9 9.8
2016-Nov-23 15:33N 66°31' E 012°14'3 3.3
2016-Nov-23 14:33N 66°30' E 012°06'0 0.0
2016-Nov-23 13:33N 66°30' E 012°06'0 0.0
2016-Nov-23 12:33N 66°30' E 012°06'0 0.0
2016-Nov-23 11:33N 66°30' E 012°06'0 0.0
2016-Nov-23 10:33N 66°30' E 012°06'0 0.0
2016-Nov-23 09:33N 66°30' E 012°06'0 0.0
2016-Nov-23 08:33N 66°30' E 012°06'0 0.0
2016-Nov-23 07:33N 66°30' E 012°06'0 0.0
2016-Nov-23 06:33N 66°30' E 012°06'  
Track history (hours):
 
Tides and Currents Weather Stations Pressure Air Temp Water Temp Dewpoint Dewpoint Depression Visibility Wind Speed Wind Dir Waves Ship Positions

Fisktrans

Last reported at 2016-Dec-03 05:20 UTC. Time now 2016-Dec-04 20:23 UTC.
Position N 69°20' E 018°02'.

Length 74 m; draft 6.5 m.

Type: Cargo ship. MMSI: 258034000.

Date/timePositionNaut miles runAvg speedWind from/ knotsBaromVisibWave heightAir tempDewpointWater temp
2016-Dec-03 05:20N 69°20' E 018°02'7 9.2
2016-Dec-03 04:33N 69°13' E 017°59'8 8.2
2016-Dec-03 03:33N 69°08' E 017°41'12 9.6
2016-Dec-03 02:20N 68°60' E 017°16'1810.3
2016-Dec-03 00:33N 68°45' E 016°46'4120.5
2016-Dec-02 22:33N 68°13' E 015°35'2914.0
2016-Dec-02 20:30N 67°52' E 014°43'7 5.9
2016-Dec-02 19:19N 67°47' E 014°32'5 6.5
2016-Dec-02 18:32N 67°42' E 014°31'2 0.9
2016-Dec-02 16:18N 67°44' E 014°31'1710.0
2016-Dec-02 14:34N 67°26' E 014°27'10 9.6
2016-Dec-02 13:33N 67°17' E 014°22'1 0.5
2016-Dec-02 12:34N 67°17' E 014°23'0 0.0
2016-Dec-02 11:33N 67°17' E 014°23'0 0.0
2016-Dec-02 10:33N 67°17' E 014°23'0 0.0
2016-Dec-02 09:34N 67°17' E 014°23'0 0.0
2016-Dec-02 08:34N 67°17' E 014°23'0 0.0
2016-Dec-02 07:34N 67°17' E 014°23'0 0.0
2016-Dec-02 06:34N 67°17' E 014°23'0 0.0
2016-Dec-02 05:34N 67°17' E 014°23'0 0.0
2016-Dec-02 04:34N 67°17' E 014°23'0 0.0
2016-Dec-02 03:34N 67°17' E 014°23'0 0.0
2016-Dec-02 02:33N 67°17' E 014°23'0 0.0
2016-Dec-02 01:34N 67°17' E 014°23'0 0.0
2016-Dec-02 00:33N 67°17' E 014°23'0 0.0
2016-Dec-01 23:33N 67°17' E 014°23'0 0.0
2016-Dec-01 22:33N 67°17' E 014°23'0 0.0
2016-Dec-01 21:34N 67°17' E 014°23'0 0.0
2016-Dec-01 20:33N 67°17' E 014°23'0 0.0
2016-Dec-01 19:33N 67°17' E 014°23'0 0.0
2016-Dec-01 18:33N 67°17' E 014°23'0 0.0
2016-Dec-01 17:34N 67°17' E 014°23'0 0.0
2016-Dec-01 16:34N 67°17' E 014°23'0 0.0
2016-Dec-01 15:34N 67°17' E 014°23'0 0.0
2016-Dec-01 14:33N 67°17' E 014°23'0 0.0
2016-Dec-01 13:33N 67°17' E 014°23'0 0.0
2016-Dec-01 12:34N 67°17' E 014°23'0 0.0
2016-Dec-01 11:34N 67°17' E 014°23'0 0.0
2016-Dec-01 10:34N 67°17' E 014°23'0 0.0
2016-Dec-01 09:34N 67°17' E 014°23'0 0.0
2016-Dec-01 08:33N 67°17' E 014°23'0 0.0
2016-Dec-01 07:34N 67°17' E 014°23'0 0.0
2016-Dec-01 06:34N 67°17' E 014°23'0 0.0
2016-Dec-01 05:33N 67°17' E 014°23'0 0.0
2016-Dec-01 04:34N 67°17' E 014°23'0 0.0
2016-Dec-01 03:34N 67°17' E 014°23'0 0.0
2016-Dec-01 02:33N 67°17' E 014°23'0 0.0
2016-Dec-01 01:34N 67°17' E 014°23'0 0.0
2016-Dec-01 00:34N 67°17' E 014°23'0 0.0
2016-Nov-30 23:33N 67°17' E 014°23'0 0.0
2016-Nov-30 22:33N 67°17' E 014°23'0 0.0
2016-Nov-30 21:34N 67°17' E 014°23'0 0.0
2016-Nov-30 20:33N 67°17' E 014°23'0 0.0
2016-Nov-30 19:33N 67°17' E 014°23'0 0.0
2016-Nov-30 18:34N 67°17' E 014°23'0 0.0
2016-Nov-30 17:33N 67°17' E 014°23'0 0.0
2016-Nov-30 16:34N 67°17' E 014°23'0 0.0
2016-Nov-30 15:34N 67°17' E 014°23'0 0.0
2016-Nov-30 14:33N 67°17' E 014°23'0 0.0
2016-Nov-30 13:33N 67°17' E 014°23'0 0.0
2016-Nov-30 12:33N 67°17' E 014°23'0 0.0
2016-Nov-30 11:33N 67°17' E 014°23'0 0.0
2016-Nov-30 10:34N 67°17' E 014°23'0 0.0
2016-Nov-30 09:33N 67°17' E 014°23'0 0.0
2016-Nov-30 08:33N 67°17' E 014°23'0 0.0
2016-Nov-30 07:34N 67°17' E 014°23'0 0.0
2016-Nov-30 06:34N 67°17' E 014°23'0 0.0
2016-Nov-30 05:33N 67°17' E 014°23'0 0.0
2016-Nov-30 04:34N 67°17' E 014°23'0 0.0
2016-Nov-30 03:33N 67°17' E 014°23'0 0.0
2016-Nov-30 02:34N 67°17' E 014°23'0 0.0
2016-Nov-30 01:34N 67°17' E 014°23'0 0.0
2016-Nov-30 00:33N 67°17' E 014°23'0 0.0
2016-Nov-29 23:33N 67°17' E 014°23'0 0.0
2016-Nov-29 22:34N 67°17' E 014°23'0 0.0
2016-Nov-29 21:32N 67°17' E 014°23'0 0.0
2016-Nov-29 20:33N 67°17' E 014°23'0 0.0
2016-Nov-29 19:34N 67°17' E 014°23'0 0.0
2016-Nov-29 18:33N 67°17' E 014°23'0 0.0
2016-Nov-29 17:33N 67°17' E 014°23'0 0.0
2016-Nov-29 16:33N 67°17' E 014°23'0 0.0
2016-Nov-29 15:33N 67°17' E 014°23'0 0.0
2016-Nov-29 14:34N 67°17' E 014°23'0 0.0
2016-Nov-29 13:33N 67°17' E 014°23'0 0.0
2016-Nov-29 12:33N 67°17' E 014°23'0 0.0
2016-Nov-29 11:34N 67°17' E 014°23'0 0.0
2016-Nov-29 10:33N 67°17' E 014°23'0 0.0
2016-Nov-29 09:34N 67°17' E 014°23'0 0.0
2016-Nov-29 08:33N 67°17' E 014°23'0 0.0
2016-Nov-29 07:34N 67°17' E 014°23'0 0.0
2016-Nov-29 06:34N 67°17' E 014°23'0 0.0
2016-Nov-29 05:33N 67°17' E 014°23'0 0.0
2016-Nov-29 04:34N 67°17' E 014°23'0 0.0
2016-Nov-29 03:34N 67°17' E 014°23'0 0.0
2016-Nov-29 02:34N 67°17' E 014°23'0 0.0
2016-Nov-29 01:33N 67°17' E 014°23'0 0.0
2016-Nov-29 00:34N 67°17' E 014°23'0 0.0
2016-Nov-28 23:34N 67°17' E 014°23'2 1.6
2016-Nov-28 22:33N 67°19' E 014°23'148147.1
2016-Nov-28 21:33N 69°30' E 017°29'0 0.0
2016-Nov-28 20:32N 69°30' E 017°29'0 0.0
2016-Nov-28 19:33N 69°30' E 017°29'0 0.0
2016-Nov-28 18:32N 69°30' E 017°29'0 0.0
2016-Nov-28 17:33N 69°30' E 017°29'0 0.0
2016-Nov-28 16:32N 69°30' E 017°29'0 0.0
2016-Nov-28 15:33N 69°30' E 017°29'0 0.0
2016-Nov-28 14:31N 69°30' E 017°29'0 0.0
2016-Nov-28 13:33N 69°30' E 017°29'0 0.0
2016-Nov-28 12:32N 69°30' E 017°29'0 0.0
2016-Nov-28 11:32N 69°30' E 017°29'0 0.0
2016-Nov-28 10:32N 69°30' E 017°29'0 0.0
2016-Nov-28 09:32N 69°30' E 017°29'0 0.0
2016-Nov-28 08:32N 69°30' E 017°29'2424.0
2016-Nov-28 07:34N 69°06' E 017°31'10 9.9
2016-Nov-28 06:34N 69°10' E 017°57'2221.7
2016-Nov-28 05:33N 69°30' E 017°29'0 0.0
2016-Nov-28 04:33N 69°30' E 017°29'0 0.0
2016-Nov-28 03:33N 69°30' E 017°29'0 0.0
2016-Nov-28 02:33N 69°30' E 017°29'0 0.0
2016-Nov-28 01:32N 69°30' E 017°29'0 0.0
2016-Nov-28 00:32N 69°30' E 017°29'0 0.0
2016-Nov-27 23:33N 69°30' E 017°29'1 1.3
2016-Nov-27 22:32N 69°31' E 017°29'12 6.0
2016-Nov-27 20:33N 69°30' E 016°55'6 5.8
2016-Nov-27 19:32N 69°25' E 016°49'7 6.6
2016-Nov-27 18:32N 69°18' E 016°50'6 6.5
2016-Nov-27 17:33N 69°12' E 016°47'7 6.4
2016-Nov-27 16:32N 69°05' E 016°45'15 6.8
2016-Nov-27 14:16N 68°50' E 016°46'5 6.9
2016-Nov-27 13:32N 68°45' E 016°44'7 6.9
2016-Nov-27 12:33N 68°39' E 016°36'39 6.5
2016-Nov-27 06:29N 68°10' E 015°24'5 3.9
2016-Nov-27 05:09N 68°06' E 015°14'4 6.9
2016-Nov-27 04:33N 68°03' E 015°06'7 7.0
2016-Nov-27 03:33N 67°58' E 014°53'7 7.0
2016-Nov-27 02:33N 67°52' E 014°43'7 6.8
2016-Nov-27 01:33N 67°47' E 014°31'7 7.4
2016-Nov-27 00:33N 67°40' E 014°31'7 7.1
2016-Nov-26 23:33N 67°32' E 014°30'7 7.1
2016-Nov-26 22:32N 67°25' E 014°27'7 7.1
2016-Nov-26 21:33N 67°19' E 014°23'1 1.2
2016-Nov-26 20:33N 67°17' E 014°23'0 0.0
2016-Nov-26 19:33N 67°17' E 014°23'0 0.0
2016-Nov-26 18:33N 67°17' E 014°23'0 0.0
2016-Nov-26 17:33N 67°17' E 014°23'0 0.0
2016-Nov-26 16:33N 67°17' E 014°23'0 0.0
2016-Nov-26 15:33N 67°17' E 014°23'0 0.0
2016-Nov-26 14:33N 67°17' E 014°23'0 0.0
2016-Nov-26 13:32N 67°17' E 014°23'0 0.0
2016-Nov-26 12:34N 67°17' E 014°23'0 0.0
2016-Nov-26 11:33N 67°17' E 014°23'0 0.0
2016-Nov-26 10:32N 67°17' E 014°23'0 0.0
2016-Nov-26 09:33N 67°17' E 014°23'0 0.0
2016-Nov-26 08:32N 67°17' E 014°23'0 0.0
2016-Nov-26 07:32N 67°17' E 014°23'0 0.0
2016-Nov-26 06:33N 67°17' E 014°23'0 0.0
2016-Nov-26 05:32N 67°17' E 014°23'0 0.0
2016-Nov-26 04:34N 67°17' E 014°23'0 0.0
2016-Nov-26 03:33N 67°17' E 014°23'0 0.0
2016-Nov-26 02:33N 67°17' E 014°23'0 0.0
2016-Nov-26 01:33N 67°17' E 014°23'0 0.0
2016-Nov-26 00:33N 67°17' E 014°23'0 0.0
2016-Nov-25 23:33N 67°17' E 014°23'0 0.0
2016-Nov-25 22:32N 67°17' E 014°23'0 0.0
2016-Nov-25 21:34N 67°17' E 014°23'0 0.0
2016-Nov-25 20:33N 67°17' E 014°23'0 0.0
2016-Nov-25 19:33N 67°17' E 014°23'1212.2
2016-Nov-25 18:33N 67°29' E 014°29'1010.3
2016-Nov-25 17:33N 67°19' E 014°23'2 2.0
2016-Nov-25 16:33N 67°17' E 014°23'0 0.0
2016-Nov-25 15:33N 67°17' E 014°23'0 0.0
2016-Nov-25 14:33N 67°17' E 014°23'0 0.0
2016-Nov-25 13:33N 67°17' E 014°23'0 0.0
2016-Nov-25 12:33N 67°17' E 014°23'0 0.0
2016-Nov-25 11:33N 67°17' E 014°23'0 0.0
2016-Nov-25 10:33N 67°17' E 014°23'0 0.0
2016-Nov-25 09:33N 67°17' E 014°23'0 0.0
2016-Nov-25 08:33N 67°17' E 014°23'0 0.0
2016-Nov-25 07:33N 67°17' E 014°23'0 0.0
2016-Nov-25 06:33N 67°17' E 014°23'0 0.0
2016-Nov-25 05:33N 67°17' E 014°23'0 0.0
2016-Nov-25 04:33N 67°17' E 014°23'0 0.0
2016-Nov-25 03:33N 67°17' E 014°23'0 0.0
2016-Nov-25 02:33N 67°17' E 014°23'0 0.0
2016-Nov-25 01:33N 67°17' E 014°23'0 0.0
2016-Nov-25 00:33N 67°17' E 014°23'0 0.0
2016-Nov-24 23:33N 67°17' E 014°23'0 0.0
2016-Nov-24 22:33N 67°17' E 014°23'0 0.0
2016-Nov-24 21:33N 67°17' E 014°23'0 0.0
2016-Nov-24 20:33N 67°17' E 014°23'0 0.0
2016-Nov-24 19:33N 67°17' E 014°23'0 0.0
2016-Nov-24 18:33N 67°17' E 014°23'0 0.0
2016-Nov-24 17:33N 67°17' E 014°23'0 0.0
2016-Nov-24 16:33N 67°17' E 014°23'0 0.0
2016-Nov-24 15:33N 67°17' E 014°23'0 0.0
2016-Nov-24 14:33N 67°17' E 014°23'0 0.0
2016-Nov-24 13:33N 67°17' E 014°23'0 0.0
2016-Nov-24 12:33N 67°17' E 014°23'0 0.0
2016-Nov-24 11:33N 67°17' E 014°23'0 0.1
2016-Nov-24 10:33N 67°17' E 014°23'0 0.1
2016-Nov-24 09:33N 67°17' E 014°23'0 0.0
2016-Nov-24 08:33N 67°17' E 014°23'0 0.0
2016-Nov-24 07:33N 67°17' E 014°23'0 0.0
2016-Nov-24 06:33N 67°17' E 014°23'0 0.0
2016-Nov-24 05:33N 67°17' E 014°23'0 0.0
2016-Nov-24 04:33N 67°17' E 014°23'0 0.0
2016-Nov-24 03:33N 67°17' E 014°23'0 0.0
2016-Nov-24 02:33N 67°17' E 014°23'0 0.0
2016-Nov-24 01:33N 67°17' E 014°23'0 0.0
2016-Nov-24 00:33N 67°17' E 014°23'0 0.0
2016-Nov-23 23:33N 67°17' E 014°23'2 2.1
2016-Nov-23 22:33N 67°16' E 014°18'10 9.5
2016-Nov-23 21:33N 67°09' E 014°02'1010.3
2016-Nov-23 20:33N 67°01' E 013°44'9 9.3
2016-Nov-23 19:33N 66°55' E 013°28'28 9.2
2016-Nov-23 16:30N 66°38' E 012°31'9 9.8
2016-Nov-23 15:33N 66°31' E 012°14'3 3.3
2016-Nov-23 14:33N 66°30' E 012°06'0 0.0
2016-Nov-23 13:33N 66°30' E 012°06'0 0.0
2016-Nov-23 12:33N 66°30' E 012°06'0 0.0
2016-Nov-23 11:33N 66°30' E 012°06'0 0.0
2016-Nov-23 10:33N 66°30' E 012°06'0 0.0
2016-Nov-23 09:33N 66°30' E 012°06'0 0.0
2016-Nov-23 08:33N 66°30' E 012°06'0 0.0
2016-Nov-23 07:33N 66°30' E 012°06'0 0.0
2016-Nov-23 06:33N 66°30' E 012°06'  

Dump ship's entire track history